メインページ
METAR-TAF:

METAR-TAF

空港 :

シカゴ, イリノイ州, アメリカ合衆国

シカゴ・オヘア国際空港

緯度: 41-58-47N, 経度: 087-54-16W, 海抜: 203m

現時点の気象観測

当レポートは47分前の21:51(UTC)に作成
南/南西の風 7kt
気温 28°C
湿度 62%
気圧 1015 hPa
視程: 16.1km
高度3600ftの雲はほとんどない
高度12000ftの雲は散在している
高度19000ftの千切れ雲あり
高度25000ftの曇り

METAR: KORD 262151Z 21007KT 10SM FEW036 SCT120 BKN190 OVC250 28/20 A2998 RMK AO2 SLP149 T02830200

時間: 17:38 (22:38 UTC)

予報

当レポートは1時間37分前の21:01(UTC)に作成
予報は26日の 21時(UTC)から 27日の 24時(UTC)まで有効
南/南西の風 8kt
視程: 10km
高度3000ftの雲は散在している
高度15000ftの千切れ雲あり
27日の 0100時(UTC)から
南東の風 4kt
視程: 10km
高度4000ftの雲は散在している, 積乱雲.
高度8000ftの曇り
にわか雨, 近辺で激しい雷雨
27日の 0400時(UTC)から
変向風 3kt
視程: 10km
高度2500ftの雲は散在している
高度4000ftの千切れ雲あり
近辺でにわか雨
27日の 0900時(UTC)から
変向風 3kt
視程: 9.7km
高度2500ftの雲は散在している
高度4000ftの千切れ雲あり
27日の 1400時(UTC)から
北東の風 6kt
視程: 10km
高度3000ftの雲はほとんどない
高度5000ftの千切れ雲あり
27日の 2000時(UTC)から
北/北東の風 12kt、最大18ktの突風を伴う
視程: 10km
高度2000ftの雲は散在している
高度4000ftの千切れ雲あり

TAF: KORD 262101Z 2621/2724 20008KT P6SM SCT030 BKN150 FM270100 14004KT P6SM SHRA VCTS SCT040CB OVC080 FM270400 VRB03KT P6SM VCSH SCT025 BKN040 FM270900 VRB03KT 6SM BR SCT025 BKN040 FM271400 04006KT P6SM FEW030 BKN050 FM272000 02012G18KT P6SM SCT020 BKN040

4,000以上の空港の気象観測と天気予報(METAR報とTAF報)

利用可能な観測所は地図上に黄色い丸と赤い丸で示す。

丸の上にカーソルを重ねると観測所名を参照できる。

次にクリックすると気象観測と天気予報を参照できる。

マップの切り替え:黒色「×」印の緑ボタンをクリックして拡大、「-」印の緑ボタンをクリックして縮小、緑色の三角印をクリックして隣りの地図に切り替え


METAR-TAF: